Pioche, Nevada Weather observations

Data are for observation ending at time listed.
 Day   Time    Ave.   Ave.  Ave.  Vector   Max.   Stn.    Total    Solar   Ave.  
  of    of     Air    Rel.  Wind   Wind    Wind   Baro.  Precip.   Rad.    Soil  
Year   Day     Temp.  Hum.  Speed  Dir.    Gust   Pres.                    Temp. 
2014   (PST)    F      %     mph   deg.    mph     mb.     in.     W/m2     F   
------------------------------------------------------------------------------
 329    8:50   35.5    27    1.7   320      3.4   830.6    0.00     394    41.4
 329    9:00   37.2    26    0.8   334      2.5   830.6    0.00     418    41.4
 329    9:10   40.3    24    0.5    65      2.5   830.6    0.00     440    41.4
 329    9:20   41.0    23    0.1    66      0.9   830.7    0.00     462    41.4
 329    9:30   43.4    22    0.2    69      1.3   830.7    0.00     482    41.4
 329    9:40   45.0    20    0.8   105      2.9   830.7    0.00     501    41.3
 329    9:50   44.9    20    1.3   105      3.6   830.7    0.00     519    41.3
 329   10:00   45.7    20    1.6    91      4.5   830.7    0.00     534    41.3
 329   10:10   45.8    20    1.3    85      4.3   830.6    0.00     549    41.3
 329   10:20   47.5    19    1.3   102      3.9   830.6    0.00     563    41.3
 329   10:30   48.6    19    0.8    75      3.2   830.4    0.00     574    41.3
 329   10:40   48.9    20    1.1   305      3.0   830.3    0.00     583    41.3
 329   10:50   49.8    20    2.2   322      7.3   830.2    0.00     592    41.3
 329   11:00   48.2    22    3.4   322      6.7   830.1    0.00     597    41.3
 329   11:10   48.4    21    2.7   334      6.6   824.4    0.00     599    41.3
 329   11:20   49.1    21    2.0    42      6.0   823.4    0.00     601    41.3
 329   11:30   49.2    21    2.4    72      5.0   822.0    0.00     603    41.3
 329   11:40   50.1    21    1.3    77      4.0   822.4    0.00     599    41.4
 329   11:50   50.8    21    2.1    82      5.6   823.2    0.00     598    41.4
 329   12:00   50.8    21    2.4    78      6.0   827.8    0.00     593    41.4
 329   12:10   52.2    23    6.2   318     16.7   828.9    0.00     588    41.5
 329   12:20   53.7    24   12.1   311     18.6   828.8    0.00     581    41.5
 329   12:30   54.0    24   10.6   305     17.5   828.6    0.00     571    41.6
 329   12:40   54.2    24    9.5   301     16.7   828.6    0.00     559    41.7
 329   12:50   54.3    24    9.2   307     17.5   828.6    0.00     546    41.7
 329   13:00   54.6    24    9.7   293     17.0   828.5    0.00     531    41.8
 329   13:10   54.4    24    8.9   279     14.6   828.1    0.00     516    41.9
 329   13:20   55.0    24    8.4   296     14.0   828.2    0.00     498    42.0
 329   13:30   54.9    23    7.8   283     12.9   828.2    0.00     478    42.1
 329   13:40   54.7    23    5.9   276     13.7   828.2    0.00     456    42.2
 329   13:50   55.7    23    6.3   308     12.3   828.3    0.00     433    42.4
 329   14:00   55.6    22    6.0   282     11.0   828.4    0.00     410    42.5
 329   14:10   54.2    23    7.0   264     13.2   828.4    0.00     385    42.6
 329   14:20   53.9    23    5.6   260     13.7   828.4    0.00     360    42.7
 329   14:30   54.1    23    5.6   258     10.4   828.5    0.00     333    42.8
 329   14:40   54.0    23    5.0   250     10.7   828.4    0.00     304    42.9
 329   14:50   53.7    23    5.4   267     10.3   828.4    0.00     275    43.1
 329   15:00   53.8    24    4.4   267      9.9   828.3    0.00     247    43.2
 329   15:10   53.5    23    6.2   274     16.0   828.2    0.00     217    43.3
 329   15:20   52.7    24    5.4   277     11.0   828.2    0.00     188    43.4
 329   15:30   52.3    24    7.8   278     14.2   828.1    0.00     158    43.5
 329   15:40   51.9    25    7.9   284     14.0   828.2    0.00      96    43.7
 329   15:50   50.8    26    8.2   277     12.6   828.1    0.00      12    43.8
 329   16:00   50.5    26    8.1   280     14.3   828.1    0.00      12    43.8
 329   16:10   49.8    27    9.0   282     14.0   828.1    0.00       9    43.9
 329   16:20   50.0    27    8.9   279     13.3   828.3    0.00       6    44.0
 329   16:30   50.2    27    8.4   281     12.8   828.3    0.00       3    44.1
 329   16:40   49.9    27    8.1   283     13.5   828.2    0.00       0    44.2
 329   16:50   50.0    28    9.3   285     13.7   828.3    0.00       0    44.3
 329   17:00   51.0    27   10.5   285     17.7   828.3    0.00       0    44.3
 329   17:10   51.1    27    7.7   279     12.4   828.4    0.00       0    44.4
 329   17:20   49.8    28    7.9   275     15.0   828.2    0.00       0    44.5
 329   17:30   51.1    28   10.2   277     16.2   828.3    0.00       0    44.6
 329   17:40   51.4    28    9.0   274     13.5   828.4    0.00       0    44.6
 329   17:50   51.3    28    9.1   278     15.3   828.5    0.00       0    44.7
 329   18:00   50.8    28    8.8   286     16.2   828.5    0.00       0    44.7
 329   18:10   48.5    30    5.2   302     10.4   828.7    0.00       0    44.8
 329   18:20   47.5    31    1.2   319      3.2   828.9    0.00       0    44.8
 329   18:30   46.3    32    1.4   299      3.4   829.0    0.00       0    44.9
 329   18:40   45.2    34    0.7   310      2.5   829.1    0.00       0    44.9
 329   18:50   43.6    36    1.7   233      4.0   829.1    0.00       0    44.9
 329   19:00   44.2    35    3.3   260      6.4   829.1    0.00       0    45.0
 329   19:10   45.5    34    3.7   265      6.8   829.3    0.00       0    45.0
 329   19:20   44.8    34    2.7   257      4.8   829.3    0.00       0    45.0
 329   19:30   44.9    35    1.9   256      4.7   829.3    0.00       0    45.0
 329   19:40   44.4    37    2.0   267      6.4   829.2    0.00       0    45.1
 329   19:50   45.0    37    4.5   257      7.0   829.1    0.00       0    45.1
 329   20:00   45.8    37    3.7   261      6.7   829.2    0.00       0    45.1
 329   20:10   45.7    38    3.0   266      5.3   829.3    0.00       0    45.1
 329   20:20   44.4    40    1.2   347      3.7   829.4    0.00       0    45.1
 329   20:30   42.5    43    1.0   252      2.0   829.5    0.00       0    45.1
 329   20:40   41.1    46    1.6   258      4.5   829.5    0.00       0    45.1
 329   20:50   43.7    44    3.0   258      5.1   829.5    0.00       0    45.1
 329   21:00   45.7    42    3.1   264      5.9   829.6    0.00       0    45.1
 329   21:10   45.3    43    2.7   279      4.5   829.7    0.00       0    45.1
 329   21:20   43.7    45    2.0   260      3.4   829.7    0.00       0    45.1
 329   21:30   42.3    48    1.4   216      3.1   829.7    0.00       0    45.1
 329   21:40   42.3    48    1.7   208      3.1   829.8    0.00       0    45.1
 329   21:50   42.1    48    1.9   221      4.2   829.7    0.00       0    45.1
 329   22:00   42.0    49    1.7   255      4.5   829.8    0.00       0    45.1
 329   22:10   44.0    46    3.9   264      6.4   829.8    0.00       0    45.1
 329   22:20   45.0    44    4.6   262      7.2   829.8    0.00       0    45.1
 329   22:30   45.3    44    4.7   261      7.5   829.8    0.00       0    45.0
 329   22:40   45.6    43    4.9   265      8.0   829.7    0.00       0    45.0
 329   22:50   46.0    42    5.2   264      8.6   829.7    0.00       0    45.0
 329   23:00   45.2    43    3.8   318      8.5   829.7    0.00       0    45.0
 329   23:10   42.3    47    2.4   279      7.4   829.6    0.00       0    45.0
 329   23:20   43.1    46    2.0   291      6.4   829.5    0.00       0    45.0
 329   23:30   41.1    48    0.8   308      6.5   829.5    0.00       0    45.0
 329   23:40   39.3    50    1.4    64      5.2   829.4    0.00       0    45.0
 329   23:50   41.5    50    3.7   266      7.9   829.3    0.00       0    45.0
 330    0:00   45.3    43    4.9   269      7.2   829.1    0.00       0    45.0
 330    0:10   45.2    43    4.0   265      6.2   829.1    0.00       0    44.9
 330    0:20   44.3    44    3.6   270      6.4   829.1    0.00       0    44.9
 330    0:30   42.9    46    2.7   259      4.5   829.1    0.00       0    44.9
 330    0:40   42.1    46    2.9    57      6.1   829.2    0.00       0    44.9
 330    0:50   37.6    53    2.4   125      3.8   829.1    0.00       0    44.9
 330    1:00   37.6    54    1.6   145      3.1   829.2    0.00       0    44.9
 330    1:10   37.0    56    1.6   190      2.8   829.3    0.00       0    44.9
 330    1:20   37.3    55    2.4   210      3.8   829.4    0.00       0    44.9
 330    1:30   37.6    55    2.0   209      3.4   829.4    0.00       0    44.9
 330    1:40   37.7    55    1.1   169      3.0   829.4    0.00       0    44.9
 330    1:50   37.8    56    1.6   212      3.1   829.4    0.00       0    44.8
 330    2:00   38.4    54    1.6   242      4.8   829.3    0.00       0    44.8
 330    2:10   40.3    51    1.5   255      3.7   829.3    0.00       0    44.8
 330    2:20   41.1    49    2.4   262      4.5   829.3    0.00       0    44.8
 330    2:30   40.7    50    2.6   264      4.7   829.2    0.00       0    44.7
 330    2:40   40.6    50    2.1   234      3.6   829.2    0.00       0    44.7
 330    2:50   39.0    53    2.0   156      5.0   829.1    0.00       0    44.7
 330    3:00   38.6    54    1.4   156      4.2   829.1    0.00       0    44.7
 330    3:10   37.8    55    0.7   169      2.0   829.1    0.00       0    44.7
 330    3:20   37.4    56    1.5   173      3.0   829.1    0.00       0    44.7
 330    3:30   37.3    57    1.6   132      3.8   829.0    0.00       0    44.6
 330    3:40   38.3    54    1.3   136      3.2   829.0    0.00       0    44.6
 330    3:50   37.0    57    1.0   151      2.6   829.1    0.00       0    44.5
 330    4:00   35.4    60    2.0   164      3.0   829.1    0.00       0    44.5
 330    4:10   35.2    60    2.1   161      3.8   829.1    0.00       0    44.5
 330    4:20   35.0    61    3.0   159      4.3   829.2    0.00       0    44.5
 330    4:30   34.6    62    2.1   158      3.9   829.2    0.00       0    44.4
 330    4:40   34.0    63    1.2   154      2.9   829.3    0.00       0    44.4
 330    4:50   34.4    62    0.9   114      3.5   829.3    0.00       0    44.4
 330    5:00   33.1    63    2.3   135      3.9   829.3    0.00       0    44.3
 330    5:10   32.8    63    1.4    99      3.4   829.4    0.00       0    44.3
 330    5:20   34.0    63    2.6   134      3.9   829.4    0.00       0    44.3
 330    5:30   34.3    62    1.8   154      4.2   829.5    0.00       0    44.2
 330    5:40   34.1    62    1.9   154      3.3   829.6    0.00       0    44.2
 330    5:50   34.1    62    3.0   158      4.6   829.6    0.00       0    44.2
 330    6:00   34.4    61    2.0   147      4.6   829.7    0.00       0    44.1
 330    6:10   34.4    61    3.8   144      4.7   829.8    0.00       0    44.1
 330    6:20   34.5    60    4.5   148      5.2   829.8    0.00       0    44.0
 330    6:30   34.2    60    2.5   137      5.1   830.0    0.00       2    44.0
 330    6:40   34.2    61    4.4   154      5.9   830.0    0.00       9    44.0
 330    6:50   35.6    58    2.9   129      5.6   830.1    0.00      29    43.9
 330    7:00   36.2    57    0.8   125      1.6   830.1    0.00      56    43.9
 330    7:10   37.3    55    0.8   181      1.5   830.3    0.00      90    43.9
 330    7:20   38.8    52    0.9   153      1.6   830.4    0.00     126    43.9
 330    7:30   40.7    49    0.3    93      1.2   830.5    0.00     160    43.9
 330    7:40   42.3    48    0.1   165      0.7   830.5    0.00     190    43.9
 330    7:50   44.1    45    0.1   256      0.9   830.7    0.00     220    43.9
 330    8:00   47.4    39    0.2   244      1.0   830.8    0.00     250    43.9
 330    8:10   47.8    39    0.4    76      1.6   830.9    0.00     279    43.8
 330    8:20   46.1    41    0.5    61      1.8   831.0    0.00     309    43.8
 330    8:30   46.2    40    0.5   337      2.0   831.1    0.00     337    43.8
 330    8:40   48.2    38    0.9   334      2.4   831.1    0.00     364    43.8

Return to Pioche, Nevada graphs page.


Western Regional Climate Center,wrcc@dri.edu